Terrell, NC

12:26 AM EDT on October 21, 2014 (GMT -0400)
Lake Norman (Woodland Heights) | Change Station
CLOSE
Current Station
Personal Weather Station
Location: Mooresville, NC
Elevation: 817 ft
Nearby Weather Stations

Elev 817 ft 35.57 °N, 80.93 °W | Updated 8 seconds ago

Mostly Cloudy
Mostly Cloudy
60.3 °F
Feels Like 60.3 °F
N
0.0
Wind Variable Wind from SE
Gusts 0.0 mph

Today
High -- | Low -- °F
--% Chance of Precip.
Yesterday
High -- | Low -- °F
Precip. -- in
7:35 AM 6:40 PM
Waning Crescent, 7% visible
Pressure 29.98 in
Visibility 10.0 miles
Clouds Scattered Clouds 6000 ft
Scattered Clouds 10000 ft
Overcast 12000 ft
Dew Point 55 °F
Humidity 83%
Rainfall 0.00 in
Snow Depth Not available.
UV 0.0 out of 12
Pollen 2.10 out of 12
Ozone Good
PM2.5 Good
Flu Activity Sporadic
METAR KSVH 210415Z AUTO 25003KT 10SM SCT060 SCT100 OVC120 12/11 A2998 RMK AO2 T01200110

More Conditions Fewer Conditions

Pressure 29.98 in
Visibility 10.0 miles
Clouds Scattered Clouds 6000 ft
Scattered Clouds 10000 ft
Overcast 12000 ft
Dew Point 55 °F
Humidity 83%
Rainfall 0.00 in
Snow Depth Not available.
UV 0.0 out of 12
Pollen 2.10 out of 12
Ozone Good
PM2.5 Good
Flu Activity Sporadic
METAR KSVH 210415Z AUTO 25003KT 10SM SCT060 SCT100 OVC120 12/11 A2998 RMK AO2 T01200110

More Conditions Fewer Conditions

10-Day Weather Forecast

Almanac

Astronomy

Oct. 21, 2014 Rise Set
Actual Time 7:35 AM EDT 6:40 PM EDT
Civil Twilight 7:09 AM EDT 7:06 PM EDT
Nautical Twilight 6:39 AM EDT 7:36 PM EDT
Astronomical Twilight 6:10 AM EDT 8:05 PM EDT
Moon 5:22 AM EDT 5:30 PM EDT
Length of Visible Light 11h 57m
Length of Day
11h 05m
Tomorrow will be 2m 5s shorter.
Waning Crescent, 7% of the Moon is Illuminated
Today
Waning Crescent
Oct 23
New
Oct 30
First Quarter
Nov 6
Full
Nov 14
Last Quarter

Today's Extremes

State Highs State Lows

Community

WunderPhotos

Upload Photos

1,763,608 photos uploaded!

Nearby

Air Quality

  Air Quality AQ Index Pollutant
Yesterday Good
OZONE
Yesterday Good
PM2.5
Current Good
PM2.5
Current Good
OZONE
Monday Good
OZONE
Monday Good
PM2.5
Tuesday Good
OZONE
Tuesday Good
PM2.5
Wednesday Good
PM2.5
Wednesday Good
OZONE
Thursday Good
PM2.5
Thursday Good
OZONE

Snow Depth

Station Depth Elevation
No new snow has been reported.

Earthquake Activity

City Distance Mag. Time & Date
No recent earthquake activity has been reported nearby.
Minimum magnitude displayed is 2.5.

Coastal Water Temperatures

Place Temperature
No Stations Reporting

Nearby Weather Stations